Terminal Aerodrome Forecast
Issued by NWS Blacksburg, VA

Home | Current Version | Previous Version | Text Only | Print | Product List | Glossary On
Versions: 1 2 3 4 5 6 7 8 9 10 11 12 13 14
000
FTUS41 KRNK 240540
TAFLYH
TAF
KLYH 240540Z 2406/2506 VRB03KT P6SM SKC
     FM241500 20004KT P6SM SKC
     FM242000 21007KT P6SM SCT250
     FM250000 00000KT P6SM SCT250=

USA.gov is the U.S. government's official web portal to all federal, state and local government web resources and services.